Time;durP1;ratioP1;P1;durP2;ratioP2;P2;SDS_P1;SDS_P2;PMS_P1;PMS_P2;Temp;Humidity;BMP_temperature;BMP_pressure;BME280_temperature;BME280_humidity;BME280_pressure;Samples;Min_cycle;Max_cycle;Signal;HPM_P1;HPM_P2
2022/11/24 00:01:34;;;;;;;8.57;2.73;;;;;;;5.57;100.00;97437.53;5067173;28;20208;-78
2022/11/24 00:06:29;;;;;;;8.10;2.40;;;;;;;5.38;100.00;97444.00;5029162;28;20240;-84
2022/11/24 00:08:57;;;;;;;8.60;2.20;;;;;;;5.27;100.00;97442.00;5031992;28;20213;-83
2022/11/24 00:11:25;;;;;;;6.20;2.57;;;;;;;5.23;100.00;97447.50;5031011;28;20213;-83
2022/11/24 00:13:54;;;;;;;7.83;2.37;;;;;;;5.18;100.00;97436.44;5029762;28;20296;-83
2022/11/24 00:16:22;;;;;;;8.50;2.90;;;;;;;5.20;100.00;97443.28;5011709;28;20593;-84
2022/11/24 00:18:53;;;;;;;6.67;2.73;;;;;;;5.28;100.00;97448.94;5012096;28;20223;-84
2022/11/24 00:21:20;;;;;;;7.77;2.70;;;;;;;5.34;100.00;97450.34;5012289;28;20224;-85
2022/11/24 00:23:50;;;;;;;8.23;2.80;;;;;;;5.37;100.00;97452.78;5011972;28;20210;-85
2022/11/24 00:26:20;;;;;;;7.13;2.77;;;;;;;5.42;100.00;97451.56;5015161;28;20216;-85
2022/11/24 00:28:48;;;;;;;10.00;2.97;;;;;;;5.43;100.00;97448.00;5015579;28;20242;-85
2022/11/24 00:31:18;;;;;;;6.20;2.10;;;;;;;5.47;100.00;97449.53;5016185;28;20213;-85
2022/11/24 00:33:46;;;;;;;7.07;2.27;;;;;;;5.46;100.00;97452.22;5016411;28;20310;-85
2022/11/24 00:36:15;;;;;;;11.37;2.90;;;;;;;5.46;100.00;97458.31;5015281;28;20233;-85
2022/11/24 00:38:42;;;;;;;10.57;2.40;;;;;;;5.53;100.00;97459.66;5015760;28;20218;-85
2022/11/24 00:41:09;;;;;;;6.50;2.20;;;;;;;5.60;100.00;97460.09;5015996;28;20234;-85
2022/11/24 00:43:35;;;;;;;11.50;2.37;;;;;;;5.66;100.00;97465.84;5021064;28;20209;-85
2022/11/24 00:46:03;;;;;;;10.10;2.23;;;;;;;5.72;100.00;97468.09;5022631;28;20231;-85
2022/11/24 00:48:31;;;;;;;6.27;2.37;;;;;;;5.77;100.00;97468.66;5014416;28;20242;-85
2022/11/24 00:50:59;;;;;;;9.57;2.40;;;;;;;5.85;100.00;97470.81;5014917;28;20312;-85
2022/11/24 00:53:26;;;;;;;7.03;2.50;;;;;;;5.91;100.00;97473.94;5014946;28;20698;-85
2022/11/24 00:55:53;;;;;;;7.27;2.67;;;;;;;5.93;100.00;97479.91;5014656;28;20248;-85
2022/11/24 00:58:19;;;;;;;5.67;2.23;;;;;;;5.93;100.00;97474.66;5014628;28;20217;-85
2022/11/24 01:00:46;;;;;;;7.33;2.50;;;;;;;5.93;100.00;97479.09;5014675;28;20209;-85
2022/11/24 01:03:16;;;;;;;3.80;2.13;;;;;;;5.94;100.00;97489.50;5014812;28;20217;-85
2022/11/24 01:05:44;;;;;;;6.53;2.33;;;;;;;5.89;100.00;97483.69;5014309;28;20662;-85
2022/11/24 01:08:15;;;;;;;8.37;2.30;;;;;;;5.85;100.00;97487.41;5014427;28;20213;-85
2022/11/24 01:10:41;;;;;;;3.63;1.70;;;;;;;5.84;100.00;97496.22;5014546;28;20247;-85
2022/11/24 01:13:08;;;;;;;10.57;2.87;;;;;;;5.80;100.00;97492.09;5014456;28;20206;-85
2022/11/24 01:15:35;;;;;;;6.17;2.37;;;;;;;5.78;100.00;97491.31;5014134;28;20257;-85
2022/11/24 01:18:02;;;;;;;10.00;2.30;;;;;;;5.79;100.00;97498.22;5013961;28;20221;-85
2022/11/24 01:20:29;;;;;;;6.27;2.00;;;;;;;5.66;100.00;97502.53;5014243;28;20581;-85
2022/11/24 01:22:57;;;;;;;9.77;2.20;;;;;;;5.61;100.00;97504.56;5014255;28;20213;-85
2022/11/24 01:25:24;;;;;;;4.90;1.70;;;;;;;5.54;100.00;97518.13;5014192;28;20232;-85
2022/11/24 01:27:50;;;;;;;9.17;1.90;;;;;;;5.46;100.00;97526.47;5013915;28;20236;-85
2022/11/24 01:30:21;;;;;;;6.83;2.00;;;;;;;5.41;100.00;97520.63;5014280;28;20212;-85
2022/11/24 01:32:48;;;;;;;5.67;2.10;;;;;;;5.45;100.00;97516.06;5014154;28;20225;-85
2022/11/24 01:35:15;;;;;;;6.30;2.30;;;;;;;5.51;100.00;97515.69;5013487;28;20242;-85
2022/11/24 01:37:41;;;;;;;11.77;2.50;;;;;;;5.56;100.00;97514.47;5013000;28;20220;-85
2022/11/24 01:40:11;;;;;;;7.50;2.53;;;;;;;5.62;100.00;97519.38;5013852;28;20217;-85
2022/11/24 01:42:42;;;;;;;11.70;2.53;;;;;;;5.66;100.00;97512.16;5014191;28;20213;-85
2022/11/24 01:45:32;;;;;;;7.87;1.97;;;;;;;5.76;100.00;97519.41;5013748;28;20240;-85
2022/11/24 01:48:03;;;;;;;6.10;1.97;;;;;;;5.81;100.00;97516.53;5013479;28;20210;-86
2022/11/24 01:50:31;;;;;;;8.00;2.03;;;;;;;5.75;100.00;97515.06;5013742;28;20298;-86
2022/11/24 01:52:58;;;;;;;7.17;2.20;;;;;;;5.78;100.00;97512.28;5013521;28;20210;-86
2022/11/24 01:55:33;;;;;;;5.87;2.00;;;;;;;5.85;100.00;97524.13;5013258;28;20239;-86
2022/11/24 01:58:06;;;;;;;5.07;2.07;;;;;;;5.88;100.00;97523.94;5013550;28;20206;-86
2022/11/24 02:00:36;;;;;;;6.70;2.10;;;;;;;5.95;100.00;97520.03;5012639;28;20212;-86
2022/11/24 02:03:02;;;;;;;5.37;2.23;;;;;;;5.92;100.00;97530.69;5013267;28;20668;-85
2022/11/24 02:05:39;;;;;;;6.43;2.73;;;;;;;5.93;100.00;97529.75;5012980;28;20255;-86
2022/11/24 02:08:15;;;;;;;7.20;2.50;;;;;;;5.96;100.00;97532.19;5012984;28;20216;-86
2022/11/24 02:10:45;;;;;;;7.00;2.70;;;;;;;5.97;100.00;97539.13;5012926;28;20236;-85
2022/11/24 02:13:14;;;;;;;8.53;2.27;;;;;;;6.02;100.00;97542.31;5012654;28;20225;-85
2022/11/24 02:15:43;;;;;;;7.87;2.30;;;;;;;6.01;100.00;97540.63;5012857;28;20604;-86
2022/11/24 02:18:10;;;;;;;4.43;1.97;;;;;;;6.03;100.00;97538.75;5012675;28;20209;-86
2022/11/24 02:20:39;;;;;;;7.17;2.20;;;;;;;6.06;100.00;97542.97;5013080;28;20209;-86
2022/11/24 02:23:16;;;;;;;4.47;1.90;;;;;;;6.11;100.00;97540.91;5012090;28;20652;-86
2022/11/24 02:25:51;;;;;;;5.47;1.80;;;;;;;6.02;100.00;97539.69;5012532;28;20225;-86
2022/11/24 02:28:22;;;;;;;7.13;2.10;;;;;;;5.92;100.00;97545.59;5013095;28;20589;-86
2022/11/24 02:30:49;;;;;;;7.90;2.10;;;;;;;5.87;100.00;97551.09;5013016;28;20676;-86
2022/11/24 02:33:16;;;;;;;7.57;2.23;;;;;;;5.85;100.00;97559.97;5012678;28;20239;-86
2022/11/24 02:35:43;;;;;;;4.47;1.73;;;;;;;5.82;100.00;97555.78;5012410;28;20241;-86
2022/11/24 02:38:12;;;;;;;6.33;2.00;;;;;;;5.83;100.00;97557.47;5012456;28;20564;-85
2022/11/24 02:40:41;;;;;;;4.07;1.93;;;;;;;5.87;100.00;97560.75;5013087;28;20206;-85
2022/11/24 02:43:12;;;;;;;7.17;1.97;;;;;;;5.87;100.00;97548.47;5012840;28;20299;-85
2022/11/24 02:45:40;;;;;;;7.13;1.90;;;;;;;5.96;100.00;97542.69;5012425;28;20232;-85
2022/11/24 02:48:07;;;;;;;11.73;2.20;;;;;;;6.08;100.00;97543.72;5011549;28;20212;-85
2022/11/24 02:50:34;;;;;;;6.93;1.90;;;;;;;6.03;100.00;97544.00;5012622;28;20227;-83
2022/11/24 02:53:00;;;;;;;5.93;1.70;;;;;;;6.02;100.00;97550.19;5012242;28;20217;-83
2022/11/24 02:55:27;;;;;;;6.10;1.90;;;;;;;5.94;100.00;97551.56;5012878;28;20240;-82
2022/11/24 02:57:53;;;;;;;9.50;2.20;;;;;;;5.94;100.00;97555.06;5012445;28;20221;-82
2022/11/24 03:00:20;;;;;;;9.30;1.73;;;;;;;5.90;100.00;97558.78;5012570;28;20223;-83
2022/11/24 03:02:48;;;;;;;5.73;1.63;;;;;;;5.83;100.00;97559.22;5012717;28;20209;-83
2022/11/24 03:05:15;;;;;;;4.63;2.27;;;;;;;5.79;100.00;97563.78;5012115;28;20260;-83
2022/11/24 03:07:41;;;;;;;4.60;2.03;;;;;;;5.82;100.00;97558.41;5012742;28;20209;-82
2022/11/24 03:10:08;;;;;;;5.03;1.53;;;;;;;5.73;100.00;97566.75;5012580;28;20209;-82
2022/11/24 03:12:35;;;;;;;8.43;1.73;;;;;;;5.74;100.00;97562.38;5012511;28;20210;-83
2022/11/24 03:15:02;;;;;;;5.93;1.93;;;;;;;5.73;100.00;97577.25;5012534;28;20258;-82
2022/11/24 03:17:29;;;;;;;10.43;2.27;;;;;;;5.82;100.00;97568.03;5011925;28;20232;-82
2022/11/24 03:20:01;;;;;;;4.03;1.80;;;;;;;5.87;100.00;97566.81;5012421;28;20212;-83
2022/11/24 03:22:27;;;;;;;4.17;1.53;;;;;;;5.84;100.00;97569.63;5012470;28;20213;-82
2022/11/24 03:24:54;;;;;;;3.57;1.67;;;;;;;5.89;100.00;97583.31;5014096;28;20255;-82
2022/11/24 03:27:20;;;;;;;4.60;1.30;;;;;;;5.87;100.00;97579.94;5020832;28;20208;-82
2022/11/24 03:29:47;;;;;;;4.00;1.57;;;;;;;5.80;100.00;97577.78;5030057;28;20240;-82
2022/11/24 03:32:13;;;;;;;3.77;1.40;;;;;;;5.68;100.00;97584.53;5029430;28;20215;-82
2022/11/24 03:34:40;;;;;;;4.87;1.50;;;;;;;5.58;100.00;97588.66;5023231;28;20233;-82
2022/11/24 03:37:07;;;;;;;5.37;1.77;;;;;;;5.57;100.00;97591.34;5012224;28;20699;-83
2022/11/24 03:39:34;;;;;;;4.10;1.60;;;;;;;5.51;100.00;97587.28;5012846;28;20209;-82
2022/11/24 03:42:00;;;;;;;7.30;1.83;;;;;;;5.55;100.00;97595.84;5012505;28;20221;-82
2022/11/24 03:44:27;;;;;;;6.30;2.03;;;;;;;5.64;100.00;97598.78;5012553;28;20233;-82
2022/11/24 03:46:53;;;;;;;6.30;1.90;;;;;;;5.76;100.00;97597.22;5011814;28;20205;-82
2022/11/24 03:49:20;;;;;;;4.47;1.50;;;;;;;5.86;100.00;97604.47;5012598;28;20216;-82
2022/11/24 03:51:46;;;;;;;5.43;1.63;;;;;;;5.94;100.00;97601.41;5012931;28;20585;-83
2022/11/24 03:54:17;;;;;;;2.57;1.50;;;;;;;6.01;100.00;97602.72;5012002;28;20230;-82
2022/11/24 03:56:43;;;;;;;4.83;1.53;;;;;;;6.05;100.00;97605.06;5011269;28;20237;-82
2022/11/24 03:59:10;;;;;;;4.23;1.67;;;;;;;6.09;100.00;97611.81;5012144;28;20233;-82
2022/11/24 04:01:36;;;;;;;3.70;1.30;;;;;;;6.11;100.00;97609.94;5015708;28;20213;-82
2022/11/24 04:04:03;;;;;;;3.43;1.57;;;;;;;6.09;100.00;97605.72;5015651;28;20234;-83
2022/11/24 04:06:29;;;;;;;4.43;1.63;;;;;;;6.08;100.00;97614.53;5015654;28;20205;-83
2022/11/24 04:08:56;;;;;;;3.50;1.30;;;;;;;6.07;100.00;97616.34;5015622;28;20235;-82
2022/11/24 04:14:08;;;;;;;5.87;2.33;;;;;;;6.19;100.00;97620.84;5015281;28;20702;-83
2022/11/24 04:16:34;;;;;;;4.07;1.33;;;;;;;6.17;100.00;97620.06;5015121;28;20225;-83
2022/11/24 04:19:01;;;;;;;5.37;1.60;;;;;;;6.17;100.00;97614.00;5015324;28;20210;-83
2022/11/24 04:21:27;;;;;;;3.10;1.30;;;;;;;6.18;100.00;97626.19;5015991;28;20211;-83
2022/11/24 04:23:53;;;;;;;4.93;1.67;;;;;;;6.15;100.00;97626.34;5015518;28;20209;-83
2022/11/24 04:26:20;;;;;;;4.00;1.60;;;;;;;6.16;100.00;97622.81;5014990;28;20206;-83
2022/11/24 04:28:48;;;;;;;3.17;1.40;;;;;;;6.13;100.00;97629.09;5015197;28;20213;-83
2022/11/24 04:31:14;;;;;;;2.20;1.50;;;;;;;6.10;100.00;97634.50;5015152;28;20213;-83
2022/11/24 04:33:41;;;;;;;2.43;1.30;;;;;;;6.14;100.00;97640.41;5014867;28;20213;-83
2022/11/24 04:36:08;;;;;;;5.57;1.50;;;;;;;6.19;100.00;97643.59;5014719;28;20233;-83
2022/11/24 04:38:35;;;;;;;4.70;1.90;;;;;;;6.22;100.00;97644.25;5014987;28;20209;-82
2022/11/24 04:41:02;;;;;;;3.37;1.30;;;;;;;6.30;100.00;97647.25;5014907;28;20213;-83
2022/11/24 04:43:28;;;;;;;6.70;1.57;;;;;;;6.32;100.00;97640.16;5014875;28;20284;-83
2022/11/24 04:45:59;;;;;;;6.40;1.40;;;;;;;6.32;100.00;97648.03;5014673;28;20244;-83
2022/11/24 04:48:25;;;;;;;3.30;1.60;;;;;;;6.29;100.00;97642.97;5014686;28;20227;-83
2022/11/24 04:50:52;;;;;;;6.73;1.87;;;;;;;6.27;100.00;97642.22;5014720;28;20216;-83
2022/11/24 04:53:18;;;;;;;3.10;1.83;;;;;;;6.23;100.00;97630.19;5015031;28;20213;-83
2022/11/24 04:55:45;;;;;;;4.97;1.90;;;;;;;6.24;100.00;97637.13;5014451;28;20234;-82
2022/11/24 04:58:11;;;;;;;3.33;1.83;;;;;;;6.14;100.00;97636.00;5014450;28;20597;-83
2022/11/24 05:00:38;;;;;;;6.67;1.90;;;;;;;6.03;100.00;97646.28;5014282;28;20223;-83
2022/11/24 05:03:06;;;;;;;7.47;2.07;;;;;;;5.90;100.00;97642.69;5014679;28;20244;-83
2022/11/24 05:05:33;;;;;;;6.03;2.33;;;;;;;5.76;100.00;97639.16;5014369;28;20605;-83
2022/11/24 05:07:59;;;;;;;6.77;2.30;;;;;;;5.71;100.00;97649.91;5014451;28;20670;-83
2022/11/24 05:10:34;;;;;;;4.50;2.07;;;;;;;5.62;100.00;97658.28;5014293;28;20216;-83
2022/11/24 05:13:01;;;;;;;4.30;1.70;;;;;;;5.56;100.00;97658.63;5014108;28;20745;-83
2022/11/24 05:15:28;;;;;;;4.57;1.80;;;;;;;5.55;100.00;97667.44;5014406;28;20312;-83
2022/11/24 05:17:54;;;;;;;8.23;2.30;;;;;;;5.59;100.00;97663.72;5013919;28;20228;-83
2022/11/24 05:20:23;;;;;;;7.23;2.43;;;;;;;5.65;100.00;97663.38;5014172;28;20210;-83
2022/11/24 05:22:50;;;;;;;5.30;2.00;;;;;;;5.70;100.00;97661.34;5014387;28;20868;-82
2022/11/24 05:25:16;;;;;;;3.03;1.73;;;;;;;5.69;100.00;97659.63;5014620;28;20233;-83
2022/11/24 05:27:43;;;;;;;4.97;1.77;;;;;;;5.64;100.00;97672.19;5014344;28;20211;-82
2022/11/24 05:30:10;;;;;;;8.50;2.50;;;;;;;5.63;100.00;97667.84;5014629;28;20208;-83
2022/11/24 05:32:37;;;;;;;6.43;1.83;;;;;;;5.57;100.00;97680.47;5014447;28;20220;-83
2022/11/24 05:35:04;;;;;;;4.17;1.93;;;;;;;5.53;100.00;97673.69;5014069;28;20232;-83
2022/11/24 05:37:32;;;;;;;5.63;2.07;;;;;;;5.52;100.00;97678.09;5013910;28;20254;-83
2022/11/24 05:39:59;;;;;;;6.93;2.37;;;;;;;5.51;100.00;97681.63;5014578;28;20206;-83
2022/11/24 05:42:41;;;;;;;5.93;2.23;;;;;;;5.60;100.00;97675.03;5014444;28;20216;-83
2022/11/24 05:45:11;;;;;;;4.87;2.20;;;;;;;5.69;100.00;97679.78;5014167;28;20708;-83
2022/11/24 05:47:38;;;;;;;7.00;2.80;;;;;;;5.77;100.00;97678.41;5014164;28;20209;-83
2022/11/24 05:50:06;;;;;;;6.00;2.00;;;;;;;5.77;100.00;97674.94;5014192;28;20730;-83
2022/11/24 05:52:34;;;;;;;7.43;2.53;;;;;;;5.71;100.00;97678.75;5013967;28;20592;-83
2022/11/24 05:55:05;;;;;;;7.43;2.37;;;;;;;5.67;100.00;97676.41;5013663;28;20659;-83
2022/11/24 05:57:32;;;;;;;8.13;2.93;;;;;;;5.68;100.00;97676.28;5013559;28;20240;-83
2022/11/24 05:59:59;;;;;;;4.20;1.87;;;;;;;5.66;100.00;97670.31;5013573;28;20202;-82
2022/11/24 06:02:26;;;;;;;5.67;1.97;;;;;;;5.61;100.00;97667.09;5013316;28;20212;-83
2022/11/24 06:04:52;;;;;;;4.93;2.23;;;;;;;5.63;100.00;97669.63;5039361;22;20241;-77
2022/11/24 06:07:19;;;;;;;14.20;3.03;;;;;;;5.65;100.00;97662.50;5072209;28;20203;-77
2022/11/24 06:09:47;;;;;;;8.70;2.27;;;;;;;5.61;100.00;97664.47;5072703;28;20668;-77
2022/11/24 06:12:13;;;;;;;3.47;2.20;;;;;;;5.62;100.00;97670.56;5072948;28;20207;-76
2022/11/24 06:14:41;;;;;;;8.57;2.30;;;;;;;5.66;100.00;97665.06;5072622;28;20231;-78
2022/11/24 06:17:09;;;;;;;6.60;2.13;;;;;;;5.78;100.00;97673.97;5072029;28;20239;-77
2022/11/24 06:19:35;;;;;;;6.93;2.30;;;;;;;5.79;100.00;97676.53;5072631;28;20222;-76
2022/11/24 06:22:02;;;;;;;5.67;2.00;;;;;;;5.77;100.00;97675.78;5072371;28;20680;-75
2022/11/24 06:24:28;;;;;;;6.83;2.03;;;;;;;5.77;100.00;97686.28;5072453;28;20210;-76
2022/11/24 06:26:56;;;;;;;4.83;1.90;;;;;;;5.84;100.00;97685.00;5071965;28;20206;-76
2022/11/24 06:29:23;;;;;;;7.97;1.73;;;;;;;5.85;100.00;97688.47;5072243;28;20211;-77
2022/11/24 06:31:51;;;;;;;6.07;2.00;;;;;;;5.88;100.00;97686.53;5072113;28;20222;-77
2022/11/24 06:34:18;;;;;;;4.00;1.90;;;;;;;5.91;100.00;97694.22;5072208;28;20213;-77
2022/11/24 06:36:45;;;;;;;7.60;2.17;;;;;;;5.95;100.00;97698.34;5071889;28;20234;-77
2022/11/24 06:39:12;;;;;;;6.27;1.90;;;;;;;5.98;100.00;97702.59;5072165;28;20211;-77
2022/11/24 06:41:38;;;;;;;6.60;1.90;;;;;;;6.08;100.00;97701.09;5072049;28;20598;-75
2022/11/24 06:44:07;;;;;;;8.27;2.30;;;;;;;6.13;100.00;97707.78;5071848;28;20204;-77
2022/11/24 06:46:33;;;;;;;9.57;2.83;;;;;;;6.20;100.00;97709.13;5071771;28;20232;-77
2022/11/24 06:49:01;;;;;;;7.50;1.93;;;;;;;6.30;100.00;97718.13;5072070;28;20680;-77
2022/11/24 06:51:27;;;;;;;8.73;1.97;;;;;;;6.37;100.00;97714.22;5071989;28;20563;-75
2022/11/24 06:53:54;;;;;;;7.60;1.93;;;;;;;6.45;100.00;97716.38;5072126;28;20230;-76
2022/11/24 06:56:21;;;;;;;7.90;1.97;;;;;;;6.50;100.00;97712.56;5071672;28;20227;-77
2022/11/24 06:58:49;;;;;;;6.13;2.10;;;;;;;6.58;100.00;97715.56;5071695;28;20235;-76
2022/11/24 07:01:18;;;;;;;4.87;1.60;;;;;;;6.62;100.00;97710.97;5071799;28;20681;-77
2022/11/24 07:03:44;;;;;;;7.20;1.70;;;;;;;6.69;100.00;97713.13;5071865;28;20211;-76
2022/11/24 07:06:11;;;;;;;5.93;1.93;;;;;;;6.77;100.00;97716.13;5071228;28;20234;-77
2022/11/24 07:08:37;;;;;;;7.17;2.17;;;;;;;6.79;100.00;97730.00;5071703;28;20211;-77
2022/11/24 07:11:05;;;;;;;8.47;1.90;;;;;;;6.82;100.00;97737.72;5071606;28;20207;-77
2022/11/24 07:13:33;;;;;;;5.23;2.10;;;;;;;6.84;100.00;97735.84;5071936;28;20264;-76
2022/11/24 07:15:59;;;;;;;10.50;2.47;;;;;;;6.88;100.00;97734.72;5071243;28;20736;-77
2022/11/24 07:18:27;;;;;;;10.37;2.17;;;;;;;6.87;100.00;97747.94;5071395;28;20235;-79
2022/11/24 07:20:54;;;;;;;8.73;2.47;;;;;;;6.88;100.00;97752.25;5071644;28;20218;-77
2022/11/24 07:23:20;;;;;;;5.50;2.27;;;;;;;6.85;100.00;97766.41;5071434;28;20208;-77
2022/11/24 07:25:47;;;;;;;7.63;2.20;;;;;;;6.88;100.00;97765.38;5071561;28;20231;-76
2022/11/24 07:28:13;;;;;;;4.43;2.00;;;;;;;6.83;100.00;97773.56;5071521;28;20213;-76
2022/11/24 07:30:40;;;;;;;5.23;2.10;;;;;;;6.83;100.00;97780.59;5071413;28;20222;-76
2022/11/24 07:33:06;;;;;;;8.57;1.73;;;;;;;6.83;100.00;97789.31;5071322;28;20589;-76
2022/11/24 07:35:34;;;;;;;11.33;3.03;;;;;;;6.82;100.00;97798.13;5070357;28;20236;-76
2022/11/24 07:38:00;;;;;;;5.10;1.73;;;;;;;6.84;100.00;97806.75;5071330;28;20591;-75
2022/11/24 07:40:27;;;;;;;8.63;2.20;;;;;;;6.83;100.00;97814.75;5071453;28;20207;-75
2022/11/24 07:42:54;;;;;;;7.00;2.30;;;;;;;6.82;100.00;97819.13;5071817;28;20214;-75
2022/11/24 07:45:21;;;;;;;14.13;2.43;;;;;;;6.86;100.00;97825.91;5071330;28;20255;-77
2022/11/24 07:47:47;;;;;;;11.90;2.80;;;;;;;6.94;100.00;97823.66;5071146;28;20207;-77
2022/11/24 07:50:14;;;;;;;7.00;2.23;;;;;;;6.95;100.00;97827.97;5071490;28;20562;-77
2022/11/24 07:52:42;;;;;;;7.33;2.20;;;;;;;6.96;100.00;97829.66;5071510;28;20203;-77
2022/11/24 07:55:09;;;;;;;10.37;1.80;;;;;;;7.03;100.00;97832.78;5071550;28;20727;-77
2022/11/24 07:57:36;;;;;;;9.53;2.23;;;;;;;7.05;100.00;97826.50;5071306;28;20266;-76
2022/11/24 08:00:07;;;;;;;8.73;2.30;;;;;;;7.10;100.00;97842.00;5071537;28;20204;-78
2022/11/24 08:02:33;;;;;;;9.27;2.63;;;;;;;7.10;100.00;97824.44;5071485;28;20206;-77
2022/11/24 08:05:00;;;;;;;7.27;1.90;;;;;;;7.10;100.00;97813.94;5071258;28;20239;-76
2022/11/24 08:07:26;;;;;;;5.80;1.73;;;;;;;7.12;100.00;97808.56;5070716;28;20203;-77
2022/11/24 08:09:54;;;;;;;5.60;2.23;;;;;;;7.14;100.00;97807.53;5071245;28;20209;-77
2022/11/24 08:12:21;;;;;;;6.60;1.80;;;;;;;7.12;100.00;97804.16;5071105;28;20677;-77
2022/11/24 08:14:49;;;;;;;4.30;1.80;;;;;;;7.13;100.00;97812.88;5070999;28;20235;-76
2022/11/24 08:17:16;;;;;;;6.77;2.00;;;;;;;7.15;100.00;97818.91;5070481;28;20219;-76
2022/11/24 08:19:42;;;;;;;9.23;2.13;;;;;;;7.15;100.00;97821.53;5070943;28;20211;-76
2022/11/24 08:22:09;;;;;;;9.47;2.00;;;;;;;7.15;100.00;97827.63;5070845;28;20238;-75
2022/11/24 08:24:35;;;;;;;6.00;1.90;;;;;;;7.19;100.00;97823.88;5069782;28;20218;-75
2022/11/24 08:27:04;;;;;;;6.13;1.67;;;;;;;7.18;100.00;97833.53;5068674;28;20684;-74
2022/11/24 08:29:30;;;;;;;6.00;2.00;;;;;;;7.22;100.00;97834.22;5069687;28;20238;-74
2022/11/24 08:31:57;;;;;;;5.67;1.70;;;;;;;7.18;100.00;97833.53;5070048;28;20207;-74
2022/11/24 08:34:25;;;;;;;3.93;1.23;;;;;;;7.21;100.00;97835.13;5066949;28;20207;-74
2022/11/24 08:36:51;;;;;;;2.23;1.20;;;;;;;7.21;100.00;97835.13;5063657;28;20209;-74
2022/11/24 08:39:19;;;;;;;7.40;1.40;;;;;;;7.22;100.00;97837.69;5069301;28;20237;-75
2022/11/24 08:41:45;;;;;;;4.20;1.63;;;;;;;7.24;100.00;97840.22;5069849;28;20293;-75
2022/11/24 08:44:14;;;;;;;6.77;1.50;;;;;;;7.23;100.00;97842.00;5069780;28;20587;-74
2022/11/24 08:46:41;;;;;;;5.47;1.23;;;;;;;7.29;100.00;97849.50;5070548;28;20628;-75
2022/11/24 08:49:08;;;;;;;7.70;1.33;;;;;;;7.31;100.00;97854.69;5073469;28;20215;-75
2022/11/24 08:51:35;;;;;;;2.57;1.10;;;;;;;7.30;100.00;97859.06;5073491;28;20214;-75
2022/11/24 08:54:02;;;;;;;4.97;1.57;;;;;;;7.28;100.00;97860.97;5073528;28;20214;-76
2022/11/24 08:56:30;;;;;;;1.97;1.00;;;;;;;7.34;100.00;97854.50;5072977;28;20235;-76
2022/11/24 08:58:57;;;;;;;1.17;1.00;;;;;;;7.31;100.00;97849.41;5073455;28;20227;-76
2022/11/24 09:01:26;;;;;;;3.47;1.00;;;;;;;7.31;100.00;97846.78;5073123;28;20526;-75
2022/11/24 09:03:53;;;;;;;2.40;0.70;;;;;;;7.33;100.00;97855.41;5073981;28;20528;-75
2022/11/24 09:06:22;;;;;;;1.00;0.70;;;;;;;7.31;100.00;97857.31;5073666;28;20231;-76
2022/11/24 09:08:48;;;;;;;1.60;0.43;;;;;;;7.33;100.00;97855.41;5068317;28;20888;-74
2022/11/24 09:11:16;;;;;;;1.03;0.60;;;;;;;7.30;100.00;97856.44;5053117;28;20287;-75
2022/11/24 09:13:43;;;;;;;1.33;0.50;;;;;;;7.34;100.00;97860.59;5061156;28;20577;-76
2022/11/24 09:16:12;;;;;;;1.03;0.57;;;;;;;7.34;100.00;97870.28;5072585;28;20719;-76
2022/11/24 09:18:40;;;;;;;1.53;0.60;;;;;;;7.32;100.00;97880.03;5061053;28;20229;-75
2022/11/24 09:21:08;;;;;;;1.40;0.70;;;;;;;7.40;100.00;97872.50;5070950;28;20680;-75
2022/11/24 09:23:35;;;;;;;2.47;0.57;;;;;;;7.53;100.00;97878.75;5073252;28;20226;-74
2022/11/24 09:26:05;;;;;;;1.90;0.50;;;;;;;7.55;100.00;97864.56;5072816;28;20232;-75
2022/11/24 09:28:32;;;;;;;1.00;0.53;;;;;;;7.65;100.00;97884.06;5073006;28;20200;-75
2022/11/24 09:31:01;;;;;;;2.93;0.60;;;;;;;7.70;100.00;97881.16;5072994;28;20212;-74
2022/11/24 09:33:27;;;;;;;1.60;0.73;;;;;;;7.76;100.00;97889.53;5072804;28;20694;-76
2022/11/24 09:35:55;;;;;;;0.73;0.60;;;;;;;7.80;100.00;97890.19;5072741;28;20224;-76
2022/11/24 09:38:22;;;;;;;0.80;0.50;;;;;;;7.84;100.00;97895.16;5072631;28;20227;-76
2022/11/24 09:40:49;;;;;;;1.90;0.60;;;;;;;7.95;100.00;97900.59;5072324;28;20222;-76
2022/11/24 09:43:23;;;;;;;1.03;0.40;;;;;;;8.00;100.00;97888.00;5072007;28;20734;-75
2022/11/24 09:45:55;;;;;;;1.17;0.50;;;;;;;8.06;100.00;97897.28;5072605;28;20252;-75
2022/11/24 09:48:27;;;;;;;0.77;0.43;;;;;;;8.10;100.00;97897.03;5072687;28;20205;-76
2022/11/24 09:50:58;;;;;;;1.43;0.50;;;;;;;8.12;100.00;97900.41;5072524;28;20696;-76
2022/11/24 09:53:31;;;;;;;1.03;0.50;;;;;;;8.14;100.00;97902.94;5072640;28;20204;-75
2022/11/24 09:56:00;;;;;;;0.47;0.30;;;;;;;8.19;100.00;97908.72;5072116;28;20228;-76
2022/11/24 09:58:43;;;;;;;0.40;0.30;;;;;;;8.20;100.00;97906.03;5072623;28;20238;-76
2022/11/24 10:01:15;;;;;;;0.83;0.37;;;;;;;8.16;100.00;97903.69;5073400;28;20216;-75
2022/11/24 10:03:44;;;;;;;0.50;0.40;;;;;;;8.15;100.00;97905.44;5073288;28;20587;-75
2022/11/24 10:06:22;;;;;;;0.50;0.50;;;;;;;8.16;100.00;97906.31;5072498;28;20239;-75
2022/11/24 10:09:14;;;;;;;0.77;0.70;;;;;;;8.19;100.00;97899.09;5073039;28;20218;-75
2022/11/24 10:11:55;;;;;;;0.60;0.60;;;;;;;8.31;100.00;97902.72;5070801;28;20214;-75
2022/11/24 10:14:48;;;;;;;1.27;0.70;;;;;;;8.39;100.00;97911.00;5081709;28;20191;-74
2022/11/24 10:17:27;;;;;;;1.23;0.50;;;;;;;8.51;100.00;97905.78;5077617;28;20210;-77
2022/11/24 10:20:02;;;;;;;1.73;0.53;;;;;;;8.58;100.00;97893.06;5081406;28;20212;-76
2022/11/24 10:22:43;;;;;;;0.60;0.60;;;;;;;8.72;100.00;97904.41;5087608;28;20198;-75
2022/11/24 10:25:24;;;;;;;0.47;0.47;;;;;;;8.82;100.00;97907.28;5083717;28;20309;-75
2022/11/24 10:27:58;;;;;;;0.83;0.60;;;;;;;8.82;100.00;97907.28;5080359;28;20214;-75
2022/11/24 10:30:25;;;;;;;0.40;0.40;;;;;;;8.87;100.00;97907.81;5089817;28;20274;-76
2022/11/24 10:32:57;;;;;;;0.80;0.43;;;;;;;8.96;100.00;97904.56;5076947;28;20210;-75
2022/11/24 10:35:30;;;;;;;0.50;0.50;;;;;;;9.15;100.00;97910.28;5071199;28;20233;-76
2022/11/24 10:38:11;;;;;;;1.30;0.50;;;;;;;9.14;100.00;97904.19;5071720;28;20211;-76
2022/11/24 10:40:41;;;;;;;0.40;0.40;;;;;;;9.14;100.00;97900.69;5071013;28;20211;-76
2022/11/24 10:43:10;;;;;;;0.50;0.50;;;;;;;9.20;100.00;97903.78;5071463;28;20234;-78
2022/11/24 10:45:38;;;;;;;2.87;0.90;;;;;;;9.22;100.00;97906.28;5071056;28;20252;-77
2022/11/24 10:48:11;;;;;;;0.90;0.60;;;;;;;9.18;100.00;97918.84;5071216;28;20294;-75
2022/11/24 10:50:40;;;;;;;1.43;0.60;;;;;;;9.12;100.00;97918.44;5071442;28;20209;-77
2022/11/24 10:53:16;;;;;;;0.60;0.50;;;;;;;9.19;100.00;97919.69;5072134;28;20209;-76
2022/11/24 10:56:01;;;;;;;0.67;0.50;;;;;;;9.30;100.00;97911.91;5070881;28;20239;-75
2022/11/24 10:58:29;;;;;;;0.40;0.40;;;;;;;9.46;100.00;97907.28;5071966;28;20228;-77
2022/11/24 11:00:58;;;;;;;0.60;0.60;;;;;;;9.53;100.00;97908.53;5072075;28;20303;-75
2022/11/24 11:03:26;;;;;;;1.97;0.80;;;;;;;9.50;100.00;97896.44;5072162;28;20206;-76
2022/11/24 11:05:55;;;;;;;2.03;0.70;;;;;;;9.55;100.00;97901.38;5071727;28;20237;-75
2022/11/24 11:08:26;;;;;;;1.07;0.60;;;;;;;9.49;100.00;97880.69;5071520;28;20261;-76
2022/11/24 11:11:13;;;;;;;3.40;0.70;;;;;;;9.52;100.00;97881.34;5071748;28;20299;-76
2022/11/24 11:13:50;;;;;;;4.47;0.90;;;;;;;9.36;100.00;97879.84;5072026;28;20207;-76
2022/11/24 11:16:24;;;;;;;1.57;0.60;;;;;;;9.37;100.00;97900.00;5071444;28;20319;-76
2022/11/24 11:18:51;;;;;;;2.43;1.10;;;;;;;9.39;100.00;97898.09;5071550;28;20235;-76
2022/11/24 11:21:28;;;;;;;2.37;1.00;;;;;;;9.32;100.00;97899.47;5072106;28;20204;-76
2022/11/24 11:23:57;;;;;;;1.10;0.70;;;;;;;9.23;100.00;97884.28;5071547;28;20201;-76
2022/11/24 11:26:33;;;;;;;3.77;0.80;;;;;;;9.28;100.00;97892.69;5069346;28;20276;-76
2022/11/24 11:29:02;;;;;;;1.50;0.80;;;;;;;9.42;100.00;97888.19;5052445;28;20215;-76
2022/11/24 11:31:30;;;;;;;0.90;0.60;;;;;;;9.45;100.00;97887.97;5058340;28;20218;-77
2022/11/24 11:34:00;;;;;;;2.37;0.70;;;;;;;9.47;100.00;97893.13;5071379;28;20214;-78
2022/11/24 11:36:28;;;;;;;3.60;0.93;;;;;;;9.55;100.00;97890.84;5071416;28;20229;-77
2022/11/24 11:38:57;;;;;;;1.33;0.70;;;;;;;9.60;100.00;97900.09;5071187;28;20229;-77
2022/11/24 11:41:29;;;;;;;1.83;0.80;;;;;;;9.59;100.00;97893.16;5071314;28;20207;-75
2022/11/24 11:44:07;;;;;;;2.20;0.97;;;;;;;9.53;100.00;97903.25;5071304;28;20578;-76
2022/11/24 11:46:33;;;;;;;2.20;0.80;;;;;;;9.42;100.00;97908.44;5071240;28;20274;-75